Hanjin Buchanan — 3FHB4 — position and weather

sailwx.info

Track history (hours):
 
Tides and Currents Weather Stations Pressure Air Temp Water Temp Dewpoint Dewpoint Depression Visibility Wind Speed Wind Dir Waves Ship Positions

Hanjin Buchanan

Last reported at 2015-May-21 15:32 UTC. Time now 2015-May-25 01:06 UTC.
Position N 38°44' W 076°26'.

Length 255 m; draft 14.3 m.

Type: Cargo ship. MMSI: 357568000.

Date/timePositionNaut miles runAvg speedWind from/ knotsBaromVisibWave heightAir tempDewpointWater temp
2015-May-21 15:32N 38°44' W 076°26'27 8.8
2015-May-21 12:27N 39°11' W 076°29'6 6.1
2015-May-21 11:32N 39°15' W 076°34'0 0.0
2015-May-21 06:24N 39°15' W 076°34'0 0.0
2015-May-21 03:30N 39°15' W 076°34'0 0.0
2015-May-21 02:29N 39°15' W 076°34'0 0.0
2015-May-20 23:26N 39°15' W 076°34'0 0.0
2015-May-20 22:26N 39°15' W 076°34'0 0.0
2015-May-20 21:29N 39°15' W 076°34'0 0.0
2015-May-20 13:08N 39°15' W 076°34'0 0.0
2015-May-20 11:20N 39°15' W 076°34'0 0.0
2015-May-20 06:08N 39°15' W 076°34'0 0.0
2015-May-20 05:23N 39°15' W 076°34'0 0.0
2015-May-20 04:23N 39°15' W 076°34'0 0.0
2015-May-20 03:11N 39°15' W 076°34'0 0.0
2015-May-20 00:17N 39°15' W 076°34'1 1.7
2015-May-19 23:28N 39°14' W 076°33'8 8.1
2015-May-19 22:30N 39°09' W 076°25'6913.3
2015-May-19 17:17N 38°01' W 076°13'  
Track history (hours):
 
Tides and Currents Weather Stations Pressure Air Temp Water Temp Dewpoint Dewpoint Depression Visibility Wind Speed Wind Dir Waves Ship Positions

Hanjin Buchanan

Last reported at 2015-May-21 15:32 UTC. Time now 2015-May-25 01:06 UTC.
Position N 38°44' W 076°26'.

Length 255 m; draft 14.3 m.

Type: Cargo ship. MMSI: 357568000.

Date/timePositionNaut miles runAvg speedWind from/ knotsBaromVisibWave heightAir tempDewpointWater temp
2015-May-21 15:32N 38°44' W 076°26'27 8.8
2015-May-21 12:27N 39°11' W 076°29'6 6.1
2015-May-21 11:32N 39°15' W 076°34'0 0.0
2015-May-21 06:24N 39°15' W 076°34'0 0.0
2015-May-21 03:30N 39°15' W 076°34'0 0.0
2015-May-21 02:29N 39°15' W 076°34'0 0.0
2015-May-20 23:26N 39°15' W 076°34'0 0.0
2015-May-20 22:26N 39°15' W 076°34'0 0.0
2015-May-20 21:29N 39°15' W 076°34'0 0.0
2015-May-20 13:08N 39°15' W 076°34'0 0.0
2015-May-20 11:20N 39°15' W 076°34'0 0.0
2015-May-20 06:08N 39°15' W 076°34'0 0.0
2015-May-20 05:23N 39°15' W 076°34'0 0.0
2015-May-20 04:23N 39°15' W 076°34'0 0.0
2015-May-20 03:11N 39°15' W 076°34'0 0.0
2015-May-20 00:17N 39°15' W 076°34'1 1.7
2015-May-19 23:28N 39°14' W 076°33'8 8.1
2015-May-19 22:30N 39°09' W 076°25'6913.3
2015-May-19 17:17N 38°01' W 076°13'  

Dump ship's entire track history